Langley, Oklahoma
Current Conditions -  °F | °C
As of 12:15 AM on Sunday 26 Oct 2014 (Local Time) from KGMJ Reporting Station
Haze Haze  
Wind Chill: 61°   Ceiling: 700
Heat Index: 61°   Visibility: 1.2mi
Dew Point: 61°   Wind: 0mph
Humidity: 100%   Direction: NA
Pressure: 30"   Gusts: NA
Location:  36.46°N, 95.05°W
Report Text: KGMJ 260515Z AUTO 00000KT 1 1/4SM BR VV007 16/16 A3000 RMK AO2
Loading
Personal Weather Stations






























Interactive Weather Map
Tropical Storm Tracking
New forecast layout! Learn more

10-Day Weather Forecast

Advertisements
Track Severe Weather on mobile